createdAt,value
2022-12-29T00:02:13.272Z,7.06
2022-12-29T00:04:40.103Z,7.05
2022-12-29T00:07:07.176Z,7.05
2022-12-29T00:09:34.365Z,7.05
2022-12-29T00:12:02.819Z,7.04
2022-12-29T00:14:47.775Z,7.04
2022-12-29T00:17:14.877Z,7.02
2022-12-29T00:19:59.643Z,6.99
2022-12-29T00:22:45.318Z,6.96
2022-12-29T00:25:31.490Z,6.91
2022-12-29T00:28:17.474Z,6.87
2022-12-29T00:31:03.269Z,6.82
2022-12-29T00:33:50.856Z,6.81
2022-12-29T00:36:25.391Z,6.84
2022-12-29T00:39:14.480Z,6.87
2022-12-29T00:41:59.692Z,6.87
2022-12-29T00:44:26.281Z,6.88
2022-12-29T00:46:52.660Z,6.87
2022-12-29T00:49:31.318Z,6.86
2022-12-29T00:52:06.449Z,6.84
2022-12-29T00:54:37.671Z,6.82
2022-12-29T00:57:06.573Z,6.79
2022-12-29T00:59:35.781Z,6.76
2022-12-29T01:02:02.460Z,6.72
2022-12-29T01:04:29.393Z,6.69
2022-12-29T01:06:56.037Z,6.66
2022-12-29T01:09:41.112Z,6.61
2022-12-29T01:12:09.193Z,6.56
2022-12-29T01:14:35.900Z,6.54
2022-12-29T01:17:02.213Z,6.50
2022-12-29T01:19:29.314Z,6.50
2022-12-29T01:21:55.632Z,6.52
2022-12-29T01:24:22.172Z,6.56
2022-12-29T01:26:49.184Z,6.59
2022-12-29T01:29:15.708Z,6.60
2022-12-29T01:31:42.141Z,6.62
2022-12-29T01:34:08.724Z,6.62
2022-12-29T01:36:35.117Z,6.63
2022-12-29T01:39:01.431Z,6.63
2022-12-29T01:41:28.344Z,6.62
2022-12-29T01:43:59.529Z,6.61
2022-12-29T01:46:31.692Z,6.60
2022-12-29T01:49:08.240Z,6.58
2022-12-29T01:51:39.435Z,6.55
2022-12-29T01:54:13.622Z,6.55
2022-12-29T01:56:40.261Z,6.53
2022-12-29T01:59:12.312Z,6.51
2022-12-29T02:01:38.902Z,6.52
2022-12-29T02:04:05.607Z,6.55
2022-12-29T02:06:33.611Z,6.59
2022-12-29T02:09:01.354Z,6.64
2022-12-29T02:11:29.753Z,6.65
2022-12-29T02:13:57.334Z,6.65
2022-12-29T02:17:01.354Z,6.63
2022-12-29T02:19:46.032Z,6.61
2022-12-29T02:22:38.912Z,6.58
2022-12-29T02:25:43.726Z,6.53
2022-12-29T02:28:47.714Z,6.49
2022-12-29T02:31:39.502Z,6.43
2022-12-29T02:34:24.688Z,6.43
2022-12-29T02:37:20.643Z,6.40
2022-12-29T02:39:54.447Z,6.36
2022-12-29T02:43:05.435Z,6.34
2022-12-29T02:45:37.465Z,6.33
2022-12-29T02:48:25.959Z,6.34
2022-12-29T02:51:01.342Z,6.40
2022-12-29T02:53:48.306Z,6.45
2022-12-29T02:56:14.785Z,6.50
2022-12-29T02:58:41.802Z,6.51
2022-12-29T03:01:10.835Z,6.53
2022-12-29T03:04:02.324Z,6.55
2022-12-29T03:06:53.428Z,6.56
2022-12-29T03:09:28.817Z,6.56
2022-12-29T03:12:13.478Z,6.55
2022-12-29T03:15:10.002Z,6.54
2022-12-29T03:17:57.743Z,6.53
2022-12-29T03:20:27.748Z,6.52
2022-12-29T03:23:01.006Z,6.51
2022-12-29T03:25:32.728Z,6.52
2022-12-29T03:28:02.404Z,6.52
2022-12-29T03:30:30.389Z,6.53
2022-12-29T03:33:00.181Z,6.55
2022-12-29T03:35:30.313Z,6.56
2022-12-29T03:38:00.644Z,6.58
2022-12-29T03:40:28.329Z,6.64
2022-12-29T03:42:55.703Z,6.70
2022-12-29T03:45:22.186Z,6.75
2022-12-29T03:47:48.569Z,6.77
2022-12-29T03:50:15.040Z,6.79
2022-12-29T03:52:41.498Z,6.79
2022-12-29T03:55:08.391Z,6.79
2022-12-29T03:57:35.062Z,6.78
2022-12-29T04:00:02.163Z,6.75
2022-12-29T04:02:29.082Z,6.72
2022-12-29T04:04:56.197Z,6.70
2022-12-29T04:07:22.591Z,6.67
2022-12-29T04:09:49.219Z,6.63
2022-12-29T04:12:15.989Z,6.60
2022-12-29T04:14:42.334Z,6.57
2022-12-29T04:17:08.726Z,6.53
2022-12-29T04:19:35.208Z,6.51
2022-12-29T04:22:01.628Z,6.51
2022-12-29T04:24:28.168Z,6.54
2022-12-29T04:26:54.630Z,6.59
2022-12-29T04:29:21.056Z,6.63
2022-12-29T04:31:47.760Z,6.67
2022-12-29T04:34:14.806Z,6.68
2022-12-29T04:36:41.202Z,6.68
2022-12-29T04:39:07.663Z,6.69
2022-12-29T04:41:34.499Z,6.67
2022-12-29T04:44:00.885Z,6.66
2022-12-29T04:46:27.353Z,6.64
2022-12-29T04:48:54.040Z,6.62
2022-12-29T04:51:20.400Z,6.60
2022-12-29T04:53:46.765Z,6.58
2022-12-29T04:56:13.407Z,6.57
2022-12-29T04:58:39.837Z,6.55
2022-12-29T05:01:06.241Z,6.54
2022-12-29T05:03:32.907Z,6.52
2022-12-29T05:05:59.535Z,6.53
2022-12-29T05:08:28.273Z,6.55
2022-12-29T05:10:55.194Z,6.62
2022-12-29T05:13:21.864Z,6.69
2022-12-29T05:15:51.141Z,6.76
2022-12-29T05:18:18.177Z,6.82
2022-12-29T05:20:44.773Z,6.86
2022-12-29T05:23:11.428Z,6.89
2022-12-29T05:25:38.100Z,6.90
2022-12-29T05:28:06.085Z,6.90
2022-12-29T05:30:32.608Z,6.89
2022-12-29T05:32:59.265Z,6.88
2022-12-29T05:35:25.627Z,6.88
2022-12-29T05:37:52.202Z,6.86
2022-12-29T05:40:18.958Z,6.85
2022-12-29T05:42:45.304Z,6.83
2022-12-29T05:45:11.722Z,6.82
2022-12-29T05:47:38.699Z,6.81
2022-12-29T05:50:05.227Z,6.79
2022-12-29T05:52:31.569Z,6.76
2022-12-29T05:54:58.239Z,6.75
2022-12-29T05:57:24.547Z,6.74
2022-12-29T05:59:50.938Z,6.72
2022-12-29T06:02:17.792Z,6.70
2022-12-29T06:04:44.215Z,6.69
2022-12-29T06:07:10.536Z,6.69
2022-12-29T06:09:37.335Z,6.68
2022-12-29T06:12:03.976Z,6.66
2022-12-29T06:14:30.546Z,6.67
2022-12-29T06:16:57.254Z,6.68
2022-12-29T06:19:23.631Z,6.72
2022-12-29T06:21:49.989Z,6.77
2022-12-29T06:24:16.598Z,6.82
2022-12-29T06:26:42.963Z,6.89
2022-12-29T06:29:09.579Z,6.93
2022-12-29T06:31:36.332Z,6.95
2022-12-29T06:34:08.111Z,6.95
2022-12-29T06:36:35.438Z,6.96
2022-12-29T06:39:01.949Z,6.95
2022-12-29T06:41:32.211Z,6.94
2022-12-29T06:43:59.208Z,6.93
2022-12-29T06:46:26.120Z,6.91
2022-12-29T06:48:52.675Z,6.89
2022-12-29T06:51:19.203Z,6.87
2022-12-29T06:53:45.877Z,6.86
2022-12-29T06:56:12.200Z,6.84
2022-12-29T06:58:38.634Z,6.83
2022-12-29T07:01:05.375Z,6.81
2022-12-29T07:03:31.845Z,6.80
2022-12-29T07:05:58.451Z,6.79
2022-12-29T07:08:25.226Z,6.79
2022-12-29T07:10:51.658Z,6.79
2022-12-29T07:13:18.059Z,6.80
2022-12-29T07:15:44.699Z,6.80
2022-12-29T07:18:11.212Z,6.80
2022-12-29T07:20:37.593Z,6.82
2022-12-29T07:23:04.261Z,6.87
2022-12-29T07:25:30.933Z,6.95
2022-12-29T07:27:57.323Z,7.04
2022-12-29T07:30:25.558Z,7.10
2022-12-29T07:32:52.081Z,7.17
2022-12-29T07:35:18.854Z,7.24
2022-12-29T07:37:45.353Z,7.30
2022-12-29T07:40:13.122Z,7.33
2022-12-29T07:42:39.641Z,7.36
2022-12-29T07:45:06.382Z,7.38
2022-12-29T07:47:32.793Z,7.40
2022-12-29T07:49:59.287Z,7.41
2022-12-29T07:52:25.739Z,7.42
2022-12-29T07:54:52.367Z,7.42
2022-12-29T07:57:19.000Z,7.42
2022-12-29T07:59:45.702Z,7.42
2022-12-29T08:02:12.505Z,7.44
2022-12-29T08:04:39.451Z,7.43
2022-12-29T08:07:06.100Z,7.44
2022-12-29T08:09:32.537Z,7.46
2022-12-29T08:11:59.206Z,7.46
2022-12-29T08:14:25.874Z,7.48
2022-12-29T08:16:52.220Z,7.48
2022-12-29T08:19:18.703Z,7.51
2022-12-29T08:21:45.542Z,7.53
2022-12-29T08:24:11.849Z,7.55
2022-12-29T08:26:39.086Z,7.55
2022-12-29T08:29:05.778Z,7.55
2022-12-29T08:31:32.217Z,7.56
2022-12-29T08:34:00.275Z,7.58
2022-12-29T08:36:27.081Z,7.61
2022-12-29T08:38:53.528Z,7.66
2022-12-29T08:41:19.885Z,7.75
2022-12-29T08:43:47.677Z,7.83
2022-12-29T08:46:14.275Z,7.91
2022-12-29T08:48:40.662Z,7.97
2022-12-29T08:51:08.042Z,8.02
2022-12-29T08:53:34.873Z,8.07
2022-12-29T08:56:05.028Z,8.08
2022-12-29T08:58:32.514Z,8.10
2022-12-29T09:00:59.299Z,8.12
2022-12-29T09:03:54.527Z,8.13
2022-12-29T09:06:12.811Z,8.14
2022-12-29T09:08:39.277Z,8.14
2022-12-29T09:11:11.623Z,8.14
2022-12-29T09:13:38.720Z,8.15
2022-12-29T09:16:05.926Z,8.15
2022-12-29T09:18:32.666Z,8.13
2022-12-29T09:21:00.945Z,8.13
2022-12-29T09:23:27.711Z,8.12
2022-12-29T09:25:54.698Z,8.11
2022-12-29T09:28:22.434Z,8.10
2022-12-29T09:30:49.382Z,8.09
2022-12-29T09:33:15.967Z,8.09
2022-12-29T09:35:51.311Z,8.08
2022-12-29T09:38:18.197Z,8.11
2022-12-29T09:40:49.759Z,8.16
2022-12-29T09:43:41.902Z,8.23
2022-12-29T09:46:27.616Z,8.31
2022-12-29T09:49:18.275Z,8.36
2022-12-29T09:51:49.163Z,8.37
2022-12-29T09:54:32.560Z,8.38
2022-12-29T09:56:59.539Z,8.40
2022-12-29T09:59:42.646Z,8.41
2022-12-29T10:02:24.675Z,8.42
2022-12-29T10:04:51.476Z,8.43
2022-12-29T10:07:31.204Z,8.42
2022-12-29T10:10:11.289Z,8.40
2022-12-29T10:12:59.366Z,8.40
2022-12-29T10:16:05.880Z,8.40
2022-12-29T10:18:57.771Z,8.40
2022-12-29T10:21:54.722Z,8.40
2022-12-29T10:24:22.320Z,8.43
2022-12-29T10:26:52.063Z,8.44
2022-12-29T10:29:21.444Z,8.47
2022-12-29T10:32:00.678Z,8.48
2022-12-29T10:34:46.368Z,8.49
2022-12-29T10:37:43.456Z,8.48
2022-12-29T10:40:19.784Z,8.49
2022-12-29T10:42:52.615Z,8.50
2022-12-29T10:45:19.838Z,8.51
2022-12-29T10:47:56.923Z,8.53
2022-12-29T10:50:25.397Z,8.53
2022-12-29T10:52:52.226Z,8.54
2022-12-29T10:55:33.593Z,8.55
2022-12-29T10:58:05.733Z,8.57
2022-12-29T11:00:33.332Z,8.60
2022-12-29T11:03:35.690Z,8.63
2022-12-29T11:06:09.558Z,8.71
2022-12-29T11:08:39.159Z,8.77
2022-12-29T11:11:08.796Z,8.82
2022-12-29T11:13:47.962Z,8.86
2022-12-29T11:16:14.574Z,8.89
2022-12-29T11:18:42.953Z,8.90
2022-12-29T11:21:33.970Z,8.90
2022-12-29T11:24:05.031Z,8.91
2022-12-29T11:26:34.786Z,8.91
2022-12-29T11:29:05.158Z,8.91
2022-12-29T11:31:32.213Z,8.91
2022-12-29T11:33:58.599Z,8.90
2022-12-29T11:36:25.409Z,8.89
2022-12-29T11:38:53.482Z,8.89
2022-12-29T11:41:28.508Z,8.89
2022-12-29T11:44:00.959Z,8.89
2022-12-29T11:46:30.937Z,8.90
2022-12-29T11:49:00.019Z,8.90
2022-12-29T11:51:37.329Z,8.90
2022-12-29T11:54:05.288Z,8.91
2022-12-29T11:56:41.238Z,8.92
2022-12-29T11:59:27.236Z,8.93
2022-12-29T12:01:55.041Z,8.93
2022-12-29T12:04:23.997Z,8.94
2022-12-29T12:07:02.829Z,8.97
2022-12-29T12:09:33.146Z,8.99
2022-12-29T12:12:00.175Z,8.99
2022-12-29T12:14:38.004Z,9.00
2022-12-29T12:17:10.686Z,9.00
2022-12-29T12:19:55.497Z,9.00
2022-12-29T12:22:38.026Z,8.99
2022-12-29T12:25:18.955Z,8.99
2022-12-29T12:27:49.682Z,8.98
2022-12-29T12:30:19.948Z,8.98
2022-12-29T12:32:55.609Z,8.98
2022-12-29T12:35:41.139Z,8.98
2022-12-29T12:38:10.471Z,8.97
2022-12-29T12:41:26.022Z,8.95
2022-12-29T12:44:07.816Z,8.94
2022-12-29T12:46:50.636Z,8.93
2022-12-29T12:49:34.660Z,8.93
2022-12-29T12:52:27.783Z,8.92
2022-12-29T12:55:25.199Z,8.91
2022-12-29T12:58:06.693Z,8.90
2022-12-29T13:00:41.170Z,8.90
2022-12-29T13:03:19.930Z,8.91
2022-12-29T13:06:12.218Z,8.90
2022-12-29T13:08:57.834Z,8.91
2022-12-29T13:11:33.614Z,8.92
2022-12-29T13:14:06.826Z,8.92
2022-12-29T13:16:45.108Z,8.92
2022-12-29T13:19:24.802Z,8.97
2022-12-29T13:22:06.576Z,9.04
2022-12-29T13:24:56.237Z,9.09
2022-12-29T13:27:37.188Z,9.13
2022-12-29T13:30:17.758Z,9.17
2022-12-29T13:33:43.092Z,9.19
2022-12-29T13:37:05.105Z,9.19
2022-12-29T13:39:41.526Z,9.19
2022-12-29T13:42:09.655Z,9.18
2022-12-29T13:44:40.488Z,9.16
2022-12-29T13:47:22.152Z,9.17
2022-12-29T13:49:49.131Z,9.17
2022-12-29T13:52:43.927Z,9.17
2022-12-29T13:55:53.603Z,9.17
2022-12-29T13:58:35.280Z,9.15
2022-12-29T14:01:11.151Z,9.13
2022-12-29T14:03:45.729Z,9.13
2022-12-29T14:06:25.777Z,9.13
2022-12-29T14:09:04.855Z,9.14
2022-12-29T14:11:32.624Z,9.13
2022-12-29T14:14:00.126Z,9.13
2022-12-29T14:16:27.771Z,9.12
2022-12-29T14:18:57.598Z,9.11
2022-12-29T14:21:29.924Z,9.10
2022-12-29T14:24:48.830Z,9.09
2022-12-29T14:27:15.790Z,9.07
2022-12-29T14:29:42.279Z,9.06
2022-12-29T14:32:26.971Z,9.07
2022-12-29T14:34:55.246Z,9.08
2022-12-29T14:37:26.806Z,9.07
2022-12-29T14:40:19.575Z,9.09
2022-12-29T14:42:47.159Z,9.08
2022-12-29T14:45:13.787Z,9.07
2022-12-29T14:47:47.233Z,9.05
2022-12-29T14:50:26.039Z,9.03
2022-12-29T14:52:58.453Z,9.01
2022-12-29T14:55:46.736Z,8.99
2022-12-29T14:58:18.018Z,8.96
2022-12-29T15:00:44.944Z,8.93
2022-12-29T15:03:21.531Z,8.90
2022-12-29T15:06:11.506Z,8.86
2022-12-29T15:08:41.137Z,8.82
2022-12-29T15:11:37.019Z,8.77
2022-12-29T15:14:03.629Z,8.72
2022-12-29T15:16:31.820Z,8.71
2022-12-29T15:18:58.877Z,8.72
2022-12-29T15:21:30.976Z,8.73
2022-12-29T15:23:57.782Z,8.75
2022-12-29T15:26:24.282Z,8.74
2022-12-29T15:28:53.221Z,8.73
2022-12-29T15:31:30.110Z,8.71
2022-12-29T15:34:10.467Z,8.69
2022-12-29T15:36:38.766Z,8.65
2022-12-29T15:39:31.596Z,8.62
2022-12-29T15:42:20.040Z,8.56
2022-12-29T15:44:46.802Z,8.50
2022-12-29T15:47:20.081Z,8.47
2022-12-29T15:49:51.425Z,8.43
2022-12-29T15:52:21.009Z,8.39
2022-12-29T15:54:50.126Z,8.35
2022-12-29T15:57:28.555Z,8.32
2022-12-29T15:59:55.511Z,8.28
2022-12-29T16:02:25.854Z,8.24
2022-12-29T16:07:52.861Z,8.14
2022-12-29T16:10:40.992Z,8.10
2022-12-29T16:13:24.890Z,8.08
2022-12-29T16:15:57.199Z,8.05
2022-12-29T16:18:35.711Z,8.02
2022-12-29T16:21:06.866Z,7.99
2022-12-29T16:23:36.825Z,7.97
2022-12-29T16:26:04.386Z,7.94
2022-12-29T16:28:42.356Z,7.95
2022-12-29T16:31:18.433Z,7.98
2022-12-29T16:33:46.572Z,8.01
2022-12-29T16:36:33.560Z,8.03
2022-12-29T16:39:22.467Z,8.06
2022-12-29T16:41:50.540Z,8.07
2022-12-29T16:44:31.076Z,8.05
2022-12-29T16:47:02.385Z,8.04
2022-12-29T16:49:30.696Z,8.02
2022-12-29T16:51:57.304Z,8.01
2022-12-29T16:54:36.292Z,7.98
2022-12-29T16:57:02.961Z,7.94
2022-12-29T16:59:33.502Z,7.92
2022-12-29T17:02:02.790Z,7.89
2022-12-29T17:04:29.684Z,7.85
2022-12-29T17:06:56.307Z,7.81
2022-12-29T17:09:28.036Z,7.79
2022-12-29T17:12:05.034Z,7.77
2022-12-29T17:14:44.482Z,7.76
2022-12-29T17:17:17.120Z,7.74
2022-12-29T17:19:51.652Z,7.73
2022-12-29T17:22:26.856Z,7.71
2022-12-29T17:24:54.472Z,7.70
2022-12-29T17:27:25.868Z,7.68
2022-12-29T17:29:53.626Z,7.66
2022-12-29T17:32:20.642Z,7.68
2022-12-29T17:34:47.156Z,7.72
2022-12-29T17:37:35.315Z,7.76
2022-12-29T17:40:04.104Z,7.79
2022-12-29T17:42:34.194Z,7.82
2022-12-29T17:45:01.399Z,7.84
2022-12-29T17:47:28.035Z,7.86
2022-12-29T17:49:54.657Z,7.87
2022-12-29T17:52:22.741Z,7.86
2022-12-29T17:54:51.822Z,7.84
2022-12-29T17:57:19.470Z,7.82
2022-12-29T17:59:46.203Z,7.81
2022-12-29T18:02:26.619Z,7.79
2022-12-29T18:04:53.671Z,7.76
2022-12-29T18:07:20.332Z,7.74
2022-12-29T18:09:46.734Z,7.73
2022-12-29T18:12:43.397Z,7.70
2022-12-29T18:15:19.498Z,7.69
2022-12-29T18:17:46.102Z,7.67
2022-12-29T18:20:12.653Z,7.65
2022-12-29T18:22:39.318Z,7.64
2022-12-29T18:25:20.889Z,7.63
2022-12-29T18:27:47.717Z,7.62
2022-12-29T18:30:14.325Z,7.61
2022-12-29T18:32:40.710Z,7.63
2022-12-29T18:35:28.615Z,7.68
2022-12-29T18:37:55.211Z,7.73
2022-12-29T18:40:22.030Z,7.76
2022-12-29T18:42:48.515Z,7.79
2022-12-29T18:45:18.745Z,7.80
2022-12-29T18:47:45.601Z,7.80
2022-12-29T18:50:12.805Z,7.80
2022-12-29T18:52:39.692Z,7.79
2022-12-29T18:55:16.480Z,7.76
2022-12-29T18:57:43.066Z,7.74
2022-12-29T19:00:10.967Z,7.72
2022-12-29T19:02:37.574Z,7.70
2022-12-29T19:05:08.000Z,7.68
2022-12-29T19:07:35.320Z,7.65
2022-12-29T19:10:01.935Z,7.62
2022-12-29T19:12:28.687Z,7.59
2022-12-29T19:14:55.542Z,7.56
2022-12-29T19:17:22.049Z,7.53
2022-12-29T19:19:48.465Z,7.50
2022-12-29T19:22:15.181Z,7.49
2022-12-29T19:24:41.840Z,7.46
2022-12-29T19:27:08.726Z,7.47
2022-12-29T19:29:35.395Z,7.52
2022-12-29T19:32:02.068Z,7.57
2022-12-29T19:34:28.491Z,7.60
2022-12-29T19:36:56.387Z,7.63
2022-12-29T19:39:23.463Z,7.64
2022-12-29T19:41:49.993Z,7.64
2022-12-29T19:44:16.764Z,7.64
2022-12-29T19:46:43.582Z,7.62
2022-12-29T19:49:10.201Z,7.62
2022-12-29T19:51:37.194Z,7.61
2022-12-29T19:54:03.793Z,7.61
2022-12-29T19:56:30.774Z,7.59
2022-12-29T19:58:57.783Z,7.59
2022-12-29T20:01:25.605Z,7.59
2022-12-29T20:03:52.405Z,7.58
2022-12-29T20:06:19.045Z,7.56
2022-12-29T20:08:45.736Z,7.55
2022-12-29T20:11:14.885Z,7.53
2022-12-29T20:13:42.364Z,7.53
2022-12-29T20:16:15.027Z,7.55
2022-12-29T20:18:42.413Z,7.59
2022-12-29T20:21:18.367Z,7.65
2022-12-29T20:23:45.723Z,7.71
2022-12-29T20:26:17.764Z,7.75
2022-12-29T20:28:44.329Z,7.79
2022-12-29T20:31:15.625Z,7.81
2022-12-29T20:33:42.781Z,7.81
2022-12-29T20:36:21.428Z,7.80
2022-12-29T20:38:49.406Z,7.79
2022-12-29T20:41:16.937Z,7.78
2022-12-29T20:43:43.441Z,7.76
2022-12-29T20:46:11.201Z,7.76
2022-12-29T20:48:37.947Z,7.74
2022-12-29T20:51:04.513Z,7.71
2022-12-29T20:53:32.814Z,7.68
2022-12-29T20:56:10.717Z,7.65
2022-12-29T20:58:52.658Z,7.61
2022-12-29T21:01:24.997Z,7.56
2022-12-29T21:03:51.862Z,7.51
2022-12-29T21:06:19.306Z,7.50
2022-12-29T21:08:45.925Z,7.52
2022-12-29T21:11:12.562Z,7.57
2022-12-29T21:13:38.992Z,7.60
2022-12-29T21:16:07.514Z,7.61
2022-12-29T21:18:34.573Z,7.59
2022-12-29T21:21:06.992Z,7.58
2022-12-29T21:23:33.537Z,7.55
2022-12-29T21:26:00.312Z,7.50
2022-12-29T21:28:26.912Z,7.47
2022-12-29T21:30:53.596Z,7.41
2022-12-29T21:33:20.896Z,7.35
2022-12-29T21:35:47.814Z,7.30
2022-12-29T21:38:14.697Z,7.28
2022-12-29T21:40:41.399Z,7.24
2022-12-29T21:43:10.304Z,7.20
2022-12-29T21:45:36.724Z,7.16
2022-12-29T21:48:22.696Z,7.12
2022-12-29T21:51:10.427Z,7.10
2022-12-29T21:53:39.193Z,7.13
2022-12-29T21:56:17.258Z,7.17
2022-12-29T21:59:07.483Z,7.21
2022-12-29T22:01:55.028Z,7.23
2022-12-29T22:04:42.771Z,7.23
2022-12-29T22:07:29.605Z,7.21
2022-12-29T22:10:15.104Z,7.19
2022-12-29T22:13:02.736Z,7.18
2022-12-29T22:15:34.363Z,7.16
2022-12-29T22:18:01.390Z,7.15
2022-12-29T22:20:31.116Z,7.14
2022-12-29T22:22:58.701Z,7.13
2022-12-29T22:25:25.493Z,7.11
2022-12-29T22:27:58.555Z,7.10
2022-12-29T22:30:27.632Z,7.12
2022-12-29T22:32:54.365Z,7.15
2022-12-29T22:35:20.721Z,7.19
2022-12-29T22:37:47.371Z,7.22
2022-12-29T22:40:14.264Z,7.24
2022-12-29T22:42:40.691Z,7.24
2022-12-29T22:45:07.584Z,7.23
2022-12-29T22:47:34.355Z,7.22
2022-12-29T22:50:00.656Z,7.19
2022-12-29T22:52:27.371Z,7.14
2022-12-29T22:54:54.269Z,7.11
2022-12-29T22:57:20.625Z,7.08
2022-12-29T22:59:47.149Z,7.05
2022-12-29T23:02:13.852Z,7.02
2022-12-29T23:05:02.960Z,6.98
2022-12-29T23:07:27.080Z,6.98
2022-12-29T23:09:53.473Z,7.02
2022-12-29T23:12:19.812Z,7.06
2022-12-29T23:14:46.605Z,7.11
2022-12-29T23:17:12.999Z,7.12
2022-12-29T23:19:39.408Z,7.14
2022-12-29T23:22:06.074Z,7.15
2022-12-29T23:24:32.441Z,7.14
2022-12-29T23:26:58.824Z,7.12
2022-12-29T23:29:25.599Z,7.09
2022-12-29T23:31:52.071Z,7.08
2022-12-29T23:34:18.576Z,7.04
2022-12-29T23:36:46.000Z,7.03
2022-12-29T23:39:18.034Z,7.01
2022-12-29T23:41:44.493Z,7.02
2022-12-29T23:44:11.374Z,7.04
2022-12-29T23:46:37.829Z,7.06
2022-12-29T23:49:04.168Z,7.07
2022-12-29T23:51:31.173Z,7.08
2022-12-29T23:53:57.553Z,7.09
2022-12-29T23:56:24.057Z,7.09
2022-12-29T23:58:51.163Z,7.06
